sensor_id;sensor_type;location;lat;lon;timestamp;temperature;humidity
63051;SHT30;49136;47.416;19.402;2023-04-08T00:00:40;3.19;99.99
63051;SHT30;49136;47.416;19.402;2023-04-08T00:03:05;3.24;99.99
63051;SHT30;49136;47.416;19.402;2023-04-08T00:05:31;3.17;99.99
63051;SHT30;49136;47.416;19.402;2023-04-08T00:07:57;3.17;99.99
63051;SHT30;49136;47.416;19.402;2023-04-08T00:10:22;3.17;99.99
63051;SHT30;49136;47.416;19.402;2023-04-08T00:12:49;3.16;99.99
63051;SHT30;49136;47.416;19.402;2023-04-08T00:15:14;3.23;99.99
63051;SHT30;49136;47.416;19.402;2023-04-08T00:17:40;3.19;99.99
63051;SHT30;49136;47.416;19.402;2023-04-08T00:20:06;3.22;99.99
63051;SHT30;49136;47.416;19.402;2023-04-08T00:22:31;3.19;99.99
63051;SHT30;49136;47.416;19.402;2023-04-08T00:24:57;3.24;99.99
63051;SHT30;49136;47.416;19.402;2023-04-08T00:27:23;3.24;99.99
63051;SHT30;49136;47.416;19.402;2023-04-08T00:29:50;3.24;99.99
63051;SHT30;49136;47.416;19.402;2023-04-08T00:32:15;3.19;99.99
63051;SHT30;49136;47.416;19.402;2023-04-08T00:34:40;3.24;99.99
63051;SHT30;49136;47.416;19.402;2023-04-08T00:37:06;3.26;99.99
63051;SHT30;49136;47.416;19.402;2023-04-08T00:39:31;3.24;99.99
63051;SHT30;49136;47.416;19.402;2023-04-08T00:41:57;3.26;99.99
63051;SHT30;49136;47.416;19.402;2023-04-08T00:44:22;3.28;99.99
63051;SHT30;49136;47.416;19.402;2023-04-08T00:46:48;3.33;99.99
63051;SHT30;49136;47.416;19.402;2023-04-08T00:49:13;3.31;99.99
63051;SHT30;49136;47.416;19.402;2023-04-08T00:51:39;3.33;99.99
63051;SHT30;49136;47.416;19.402;2023-04-08T00:54:05;3.31;99.99
63051;SHT30;49136;47.416;19.402;2023-04-08T00:56:31;3.31;99.99
63051;SHT30;49136;47.416;19.402;2023-04-08T00:58:59;3.28;99.99
63051;SHT30;49136;47.416;19.402;2023-04-08T01:04:32;3.30;99.99
63051;SHT30;49136;47.416;19.402;2023-04-08T01:07:26;3.27;99.99
63051;SHT30;49136;47.416;19.402;2023-04-08T01:09:56;3.26;99.99
63051;SHT30;49136;47.416;19.402;2023-04-08T01:12:28;3.26;99.99
63051;SHT30;49136;47.416;19.402;2023-04-08T01:15:04;3.34;99.99
63051;SHT30;49136;47.416;19.402;2023-04-08T01:17:31;3.33;99.99
63051;SHT30;49136;47.416;19.402;2023-04-08T01:20:00;3.27;99.99
63051;SHT30;49136;47.416;19.402;2023-04-08T01:25:11;3.28;99.99
63051;SHT30;49136;47.416;19.402;2023-04-08T01:27:38;3.37;99.99
63051;SHT30;49136;47.416;19.402;2023-04-08T01:30:05;3.35;99.99
63051;SHT30;49136;47.416;19.402;2023-04-08T01:32:33;3.42;99.99
63051;SHT30;49136;47.416;19.402;2023-04-08T01:34:59;3.34;99.99
63051;SHT30;49136;47.416;19.402;2023-04-08T01:37:27;3.38;99.99
63051;SHT30;49136;47.416;19.402;2023-04-08T01:39:54;3.42;99.99
63051;SHT30;49136;47.416;19.402;2023-04-08T01:42:21;3.34;99.99
63051;SHT30;49136;47.416;19.402;2023-04-08T01:44:49;3.35;99.99
63051;SHT30;49136;47.416;19.402;2023-04-08T01:47:15;3.35;99.99
63051;SHT30;49136;47.416;19.402;2023-04-08T01:49:41;3.30;99.99
63051;SHT30;49136;47.416;19.402;2023-04-08T01:52:08;3.31;99.99
63051;SHT30;49136;47.416;19.402;2023-04-08T01:54:34;3.35;99.99
63051;SHT30;49136;47.416;19.402;2023-04-08T01:57:01;3.33;99.99
63051;SHT30;49136;47.416;19.402;2023-04-08T01:59:30;3.37;99.99
63051;SHT30;49136;47.416;19.402;2023-04-08T02:01:59;3.37;99.99
63051;SHT30;49136;47.416;19.402;2023-04-08T02:04:26;3.37;99.99
63051;SHT30;49136;47.416;19.402;2023-04-08T02:06:51;3.30;99.99
63051;SHT30;49136;47.416;19.402;2023-04-08T02:09:17;3.34;99.99
63051;SHT30;49136;47.416;19.402;2023-04-08T02:11:42;3.33;99.99
63051;SHT30;49136;47.416;19.402;2023-04-08T02:14:07;3.33;99.99
63051;SHT30;49136;47.416;19.402;2023-04-08T02:16:39;3.30;99.99
63051;SHT30;49136;47.416;19.402;2023-04-08T02:19:07;3.37;99.99
63051;SHT30;49136;47.416;19.402;2023-04-08T02:21:43;3.31;99.99
63051;SHT30;49136;47.416;19.402;2023-04-08T02:24:12;3.33;99.99
63051;SHT30;49136;47.416;19.402;2023-04-08T02:26:39;3.34;99.99
63051;SHT30;49136;47.416;19.402;2023-04-08T02:29:13;3.31;99.99
63051;SHT30;49136;47.416;19.402;2023-04-08T02:31:40;3.31;99.99
63051;SHT30;49136;47.416;19.402;2023-04-08T02:34:08;3.33;99.99
63051;SHT30;49136;47.416;19.402;2023-04-08T02:36:34;3.30;99.99
63051;SHT30;49136;47.416;19.402;2023-04-08T02:39:01;3.37;99.99
63051;SHT30;49136;47.416;19.402;2023-04-08T02:41:28;3.31;99.99
63051;SHT30;49136;47.416;19.402;2023-04-08T02:43:54;3.35;99.99
63051;SHT30;49136;47.416;19.402;2023-04-08T02:46:19;3.33;99.99
63051;SHT30;49136;47.416;19.402;2023-04-08T02:48:45;3.31;99.99
63051;SHT30;49136;47.416;19.402;2023-04-08T02:51:10;3.34;99.99
63051;SHT30;49136;47.416;19.402;2023-04-08T02:53:36;3.27;99.99
63051;SHT30;49136;47.416;19.402;2023-04-08T02:56:01;3.28;99.99
63051;SHT30;49136;47.416;19.402;2023-04-08T02:58:27;3.33;99.99
63051;SHT30;49136;47.416;19.402;2023-04-08T03:00:52;3.34;99.99
63051;SHT30;49136;47.416;19.402;2023-04-08T03:03:18;3.33;99.99
63051;SHT30;49136;47.416;19.402;2023-04-08T03:05:43;3.33;99.99
63051;SHT30;49136;47.416;19.402;2023-04-08T03:08:09;3.28;99.99
63051;SHT30;49136;47.416;19.402;2023-04-08T03:10:34;3.28;99.99
63051;SHT30;49136;47.416;19.402;2023-04-08T03:13:00;3.34;99.99
63051;SHT30;49136;47.416;19.402;2023-04-08T03:15:25;3.34;99.99
63051;SHT30;49136;47.416;19.402;2023-04-08T03:17:51;3.33;99.99
63051;SHT30;49136;47.416;19.402;2023-04-08T03:20:16;3.33;99.99
63051;SHT30;49136;47.416;19.402;2023-04-08T03:22:42;3.35;99.99
63051;SHT30;49136;47.416;19.402;2023-04-08T03:25:08;3.28;99.99
63051;SHT30;49136;47.416;19.402;2023-04-08T03:27:33;3.26;99.99
63051;SHT30;49136;47.416;19.402;2023-04-08T03:29:59;3.30;99.99
63051;SHT30;49136;47.416;19.402;2023-04-08T03:32:24;3.26;99.99
63051;SHT30;49136;47.416;19.402;2023-04-08T03:34:49;3.26;99.99
63051;SHT30;49136;47.416;19.402;2023-04-08T03:37:18;3.28;99.99
63051;SHT30;49136;47.416;19.402;2023-04-08T03:39:43;3.28;99.99
63051;SHT30;49136;47.416;19.402;2023-04-08T03:42:09;3.33;99.99
63051;SHT30;49136;47.416;19.402;2023-04-08T03:44:35;3.33;99.99
63051;SHT30;49136;47.416;19.402;2023-04-08T03:47:00;3.28;99.99
63051;SHT30;49136;47.416;19.402;2023-04-08T03:49:25;3.28;99.99
63051;SHT30;49136;47.416;19.402;2023-04-08T03:51:51;3.23;99.99
63051;SHT30;49136;47.416;19.402;2023-04-08T03:54:16;3.27;99.99
63051;SHT30;49136;47.416;19.402;2023-04-08T03:56:42;3.30;99.99
63051;SHT30;49136;47.416;19.402;2023-04-08T03:59:07;3.23;99.99
63051;SHT30;49136;47.416;19.402;2023-04-08T04:01:32;3.22;99.99
63051;SHT30;49136;47.416;19.402;2023-04-08T04:03:58;3.22;99.99
63051;SHT30;49136;47.416;19.402;2023-04-08T04:06:23;3.24;99.99
63051;SHT30;49136;47.416;19.402;2023-04-08T04:08:52;3.31;99.99
63051;SHT30;49136;47.416;19.402;2023-04-08T04:11:18;3.27;99.99
63051;SHT30;49136;47.416;19.402;2023-04-08T04:13:43;3.20;99.99
63051;SHT30;49136;47.416;19.402;2023-04-08T04:16:09;3.14;99.99
63051;SHT30;49136;47.416;19.402;2023-04-08T04:18:34;3.09;99.99
63051;SHT30;49136;47.416;19.402;2023-04-08T04:21:00;3.07;99.99
63051;SHT30;49136;47.416;19.402;2023-04-08T04:23:25;3.05;99.99
63051;SHT30;49136;47.416;19.402;2023-04-08T04:25:50;3.06;99.99
63051;SHT30;49136;47.416;19.402;2023-04-08T04:28:16;3.10;99.99
63051;SHT30;49136;47.416;19.402;2023-04-08T04:30:41;3.13;99.99
63051;SHT30;49136;47.416;19.402;2023-04-08T04:33:07;3.09;99.99
63051;SHT30;49136;47.416;19.402;2023-04-08T04:35:32;3.10;99.99
63051;SHT30;49136;47.416;19.402;2023-04-08T04:37:58;3.07;99.99
63051;SHT30;49136;47.416;19.402;2023-04-08T04:40:24;3.12;99.99
63051;SHT30;49136;47.416;19.402;2023-04-08T04:42:49;3.12;99.99
63051;SHT30;49136;47.416;19.402;2023-04-08T04:45:15;3.13;99.99
63051;SHT30;49136;47.416;19.402;2023-04-08T04:47:40;3.09;99.99
63051;SHT30;49136;47.416;19.402;2023-04-08T04:50:06;3.12;99.99
63051;SHT30;49136;47.416;19.402;2023-04-08T04:52:32;3.12;99.99
63051;SHT30;49136;47.416;19.402;2023-04-08T04:54:57;3.14;99.99
63051;SHT30;49136;47.416;19.402;2023-04-08T04:57:23;3.20;99.99
63051;SHT30;49136;47.416;19.402;2023-04-08T04:59:48;3.26;99.99
63051;SHT30;49136;47.416;19.402;2023-04-08T05:02:14;3.17;99.99
63051;SHT30;49136;47.416;19.402;2023-04-08T05:04:39;3.23;99.99
63051;SHT30;49136;47.416;19.402;2023-04-08T05:07:05;3.22;99.99
63051;SHT30;49136;47.416;19.402;2023-04-08T05:09:30;3.22;99.99
63051;SHT30;49136;47.416;19.402;2023-04-08T05:11:56;3.30;99.99
63051;SHT30;49136;47.416;19.402;2023-04-08T05:14:22;3.22;99.99
63051;SHT30;49136;47.416;19.402;2023-04-08T05:16:47;3.31;99.99
63051;SHT30;49136;47.416;19.402;2023-04-08T05:19:13;3.38;99.99
63051;SHT30;49136;47.416;19.402;2023-04-08T05:21:38;3.40;99.99
63051;SHT30;49136;47.416;19.402;2023-04-08T05:24:04;3.31;99.99
63051;SHT30;49136;47.416;19.402;2023-04-08T05:26:29;3.44;99.99
63051;SHT30;49136;47.416;19.402;2023-04-08T05:28:55;3.37;99.99
63051;SHT30;49136;47.416;19.402;2023-04-08T05:31:20;3.40;99.99
63051;SHT30;49136;47.416;19.402;2023-04-08T05:33:46;3.45;99.99
63051;SHT30;49136;47.416;19.402;2023-04-08T05:36:13;3.48;99.99
63051;SHT30;49136;47.416;19.402;2023-04-08T05:38:39;3.42;99.99
63051;SHT30;49136;47.416;19.402;2023-04-08T05:41:04;3.50;99.99
63051;SHT30;49136;47.416;19.402;2023-04-08T05:43:33;3.42;99.99
63051;SHT30;49136;47.416;19.402;2023-04-08T05:45:59;3.40;99.99
63051;SHT30;49136;47.416;19.402;2023-04-08T05:48:25;3.51;99.99
63051;SHT30;49136;47.416;19.402;2023-04-08T05:50:50;3.48;99.99
63051;SHT30;49136;47.416;19.402;2023-04-08T05:53:16;3.54;99.99
63051;SHT30;49136;47.416;19.402;2023-04-08T05:55:41;3.68;99.99
63051;SHT30;49136;47.416;19.402;2023-04-08T05:58:07;3.54;99.99
63051;SHT30;49136;47.416;19.402;2023-04-08T06:00:32;3.72;99.99
63051;SHT30;49136;47.416;19.402;2023-04-08T06:02:58;3.66;99.99
63051;SHT30;49136;47.416;19.402;2023-04-08T06:05:23;3.76;99.99
63051;SHT30;49136;47.416;19.402;2023-04-08T06:07:49;3.78;99.99
63051;SHT30;49136;47.416;19.402;2023-04-08T06:10:14;3.72;99.99
63051;SHT30;49136;47.416;19.402;2023-04-08T06:12:40;3.71;99.99
63051;SHT30;49136;47.416;19.402;2023-04-08T06:15:06;3.66;99.99
63051;SHT30;49136;47.416;19.402;2023-04-08T06:17:32;3.83;99.99
63051;SHT30;49136;47.416;19.402;2023-04-08T06:19:57;3.90;99.99
63051;SHT30;49136;47.416;19.402;2023-04-08T06:22:23;3.79;99.99
63051;SHT30;49136;47.416;19.402;2023-04-08T06:24:48;3.89;99.99
63051;SHT30;49136;47.416;19.402;2023-04-08T06:27:14;3.81;99.99
63051;SHT30;49136;47.416;19.402;2023-04-08T06:29:40;3.82;99.99
63051;SHT30;49136;47.416;19.402;2023-04-08T06:32:05;3.90;99.99
63051;SHT30;49136;47.416;19.402;2023-04-08T06:34:31;3.90;99.99
63051;SHT30;49136;47.416;19.402;2023-04-08T06:36:56;3.83;99.99
63051;SHT30;49136;47.416;19.402;2023-04-08T06:39:22;3.81;99.99
63051;SHT30;49136;47.416;19.402;2023-04-08T06:41:48;3.82;99.99
63051;SHT30;49136;47.416;19.402;2023-04-08T06:44:13;4.06;99.99
63051;SHT30;49136;47.416;19.402;2023-04-08T06:46:38;3.97;99.92
63051;SHT30;49136;47.416;19.402;2023-04-08T06:49:04;4.03;99.85
63051;SHT30;49136;47.416;19.402;2023-04-08T06:51:31;3.94;99.99
63051;SHT30;49136;47.416;19.402;2023-04-08T06:53:57;4.04;99.68
63051;SHT30;49136;47.416;19.402;2023-04-08T06:56:22;4.03;99.99
63051;SHT30;49136;47.416;19.402;2023-04-08T06:58:50;3.76;99.99
63051;SHT30;49136;47.416;19.402;2023-04-08T07:01:16;3.92;99.99
63051;SHT30;49136;47.416;19.402;2023-04-08T07:03:42;4.03;99.99
63051;SHT30;49136;47.416;19.402;2023-04-08T07:06:07;4.06;99.99
63051;SHT30;49136;47.416;19.402;2023-04-08T07:08:33;4.00;99.87
63051;SHT30;49136;47.416;19.402;2023-04-08T07:10:58;3.85;99.99
63051;SHT30;49136;47.416;19.402;2023-04-08T07:13:23;3.89;99.99
63051;SHT30;49136;47.416;19.402;2023-04-08T07:15:49;3.79;99.99
63051;SHT30;49136;47.416;19.402;2023-04-08T07:18:14;3.79;99.99
63051;SHT30;49136;47.416;19.402;2023-04-08T07:20:40;3.93;99.99
63051;SHT30;49136;47.416;19.402;2023-04-08T07:23:06;4.00;99.99
63051;SHT30;49136;47.416;19.402;2023-04-08T07:25:32;4.07;99.99
63051;SHT30;49136;47.416;19.402;2023-04-08T07:27:59;4.03;99.99
63051;SHT30;49136;47.416;19.402;2023-04-08T07:30:25;4.07;99.99
63051;SHT30;49136;47.416;19.402;2023-04-08T07:32:50;4.21;99.99
63051;SHT30;49136;47.416;19.402;2023-04-08T07:35:16;4.24;99.99
63051;SHT30;49136;47.416;19.402;2023-04-08T07:37:49;4.20;99.99
63051;SHT30;49136;47.416;19.402;2023-04-08T07:40:15;4.37;99.53
63051;SHT30;49136;47.416;19.402;2023-04-08T07:42:41;4.40;99.24
63051;SHT30;49136;47.416;19.402;2023-04-08T07:45:07;4.24;98.57
63051;SHT30;49136;47.416;19.402;2023-04-08T07:47:32;4.11;99.99
63051;SHT30;49136;47.416;19.402;2023-04-08T07:49:58;4.14;99.99
63051;SHT30;49136;47.416;19.402;2023-04-08T07:52:23;4.20;99.96
63051;SHT30;49136;47.416;19.402;2023-04-08T07:54:49;4.25;99.99
63051;SHT30;49136;47.416;19.402;2023-04-08T07:57:15;4.30;99.99
63051;SHT30;49136;47.416;19.402;2023-04-08T07:59:40;4.13;99.43
63051;SHT30;49136;47.416;19.402;2023-04-08T08:02:06;4.27;99.63
63051;SHT30;49136;47.416;19.402;2023-04-08T08:04:31;4.18;99.99
63051;SHT30;49136;47.416;19.402;2023-04-08T08:06:57;4.31;99.80
63051;SHT30;49136;47.416;19.402;2023-04-08T08:09:22;4.45;99.65
63051;SHT30;49136;47.416;19.402;2023-04-08T08:11:47;4.34;98.77
63051;SHT30;49136;47.416;19.402;2023-04-08T08:14:13;4.33;98.17
63051;SHT30;49136;47.416;19.402;2023-04-08T08:16:39;4.45;97.94
63051;SHT30;49136;47.416;19.402;2023-04-08T08:19:06;4.58;98.51
63051;SHT30;49136;47.416;19.402;2023-04-08T08:21:35;4.49;99.35
63051;SHT30;49136;47.416;19.402;2023-04-08T08:24:01;4.62;98.70
63051;SHT30;49136;47.416;19.402;2023-04-08T08:26:26;4.56;98.93
63051;SHT30;49136;47.416;19.402;2023-04-08T08:28:53;4.81;98.52
63051;SHT30;49136;47.416;19.402;2023-04-08T08:31:18;4.93;97.68
63051;SHT30;49136;47.416;19.402;2023-04-08T08:33:44;5.12;97.31
63051;SHT30;49136;47.416;19.402;2023-04-08T08:36:10;5.25;96.63
63051;SHT30;49136;47.416;19.402;2023-04-08T08:38:35;4.97;96.19
63051;SHT30;49136;47.416;19.402;2023-04-08T08:41:01;5.01;96.51
63051;SHT30;49136;47.416;19.402;2023-04-08T08:43:28;5.24;95.53
63051;SHT30;49136;47.416;19.402;2023-04-08T08:45:53;5.05;96.19
63051;SHT30;49136;47.416;19.402;2023-04-08T08:48:19;4.95;96.24
63051;SHT30;49136;47.416;19.402;2023-04-08T08:50:45;5.11;96.12
63051;SHT30;49136;47.416;19.402;2023-04-08T08:53:11;5.42;95.89
63051;SHT30;49136;47.416;19.402;2023-04-08T08:55:36;5.29;95.93
63051;SHT30;49136;47.416;19.402;2023-04-08T08:58:05;5.70;95.34
63051;SHT30;49136;47.416;19.402;2023-04-08T09:00:40;5.43;94.73
63051;SHT30;49136;47.416;19.402;2023-04-08T09:03:23;5.29;94.01
63051;SHT30;49136;47.416;19.402;2023-04-08T09:05:59;5.35;94.94
63051;SHT30;49136;47.416;19.402;2023-04-08T09:11:10;5.90;93.98
63051;SHT30;49136;47.416;19.402;2023-04-08T09:13:36;5.86;93.07
63051;SHT30;49136;47.416;19.402;2023-04-08T09:16:02;5.57;93.11
63051;SHT30;49136;47.416;19.402;2023-04-08T09:18:29;5.98;92.46
63051;SHT30;49136;47.416;19.402;2023-04-08T09:20:55;5.86;92.28
63051;SHT30;49136;47.416;19.402;2023-04-08T09:23:20;5.56;92.84
63051;SHT30;49136;47.416;19.402;2023-04-08T09:25:46;5.42;92.97
63051;SHT30;49136;47.416;19.402;2023-04-08T09:28:19;5.28;93.56
63051;SHT30;49136;47.416;19.402;2023-04-08T09:30:47;5.56;94.61
63051;SHT30;49136;47.416;19.402;2023-04-08T09:33:13;5.60;93.86
63051;SHT30;49136;47.416;19.402;2023-04-08T09:35:38;5.43;94.28
63051;SHT30;49136;47.416;19.402;2023-04-08T09:38:04;5.90;94.18
63051;SHT30;49136;47.416;19.402;2023-04-08T09:40:32;6.30;91.97
63051;SHT30;49136;47.416;19.402;2023-04-08T09:43:04;6.04;92.12
63051;SHT30;49136;47.416;19.402;2023-04-08T09:45:35;6.22;91.62
63051;SHT30;49136;47.416;19.402;2023-04-08T09:48:17;5.90;92.80
63051;SHT30;49136;47.416;19.402;2023-04-08T09:50:48;6.08;91.94
63051;SHT30;49136;47.416;19.402;2023-04-08T09:53:19;6.32;91.42
63051;SHT30;49136;47.416;19.402;2023-04-08T09:55:52;6.04;92.13
63051;SHT30;49136;47.416;19.402;2023-04-08T09:58:24;6.06;92.50
63051;SHT30;49136;47.416;19.402;2023-04-08T10:00:53;5.90;92.13
63051;SHT30;49136;47.416;19.402;2023-04-08T10:03:36;6.21;92.08
63051;SHT30;49136;47.416;19.402;2023-04-08T10:06:04;6.04;91.82
63051;SHT30;49136;47.416;19.402;2023-04-08T10:08:32;6.46;91.73
63051;SHT30;49136;47.416;19.402;2023-04-08T10:10:58;6.28;93.02
63051;SHT30;49136;47.416;19.402;2023-04-08T10:13:24;6.43;91.02
63051;SHT30;49136;47.416;19.402;2023-04-08T10:16:18;6.19;90.77
63051;SHT30;49136;47.416;19.402;2023-04-08T10:18:49;6.09;92.31
63051;SHT30;49136;47.416;19.402;2023-04-08T10:21:37;5.84;92.77
63051;SHT30;49136;47.416;19.402;2023-04-08T10:24:06;6.06;92.20
63051;SHT30;49136;47.416;19.402;2023-04-08T10:26:37;6.01;91.77
63051;SHT30;49136;47.416;19.402;2023-04-08T10:31:47;6.09;91.83
63051;SHT30;49136;47.416;19.402;2023-04-08T10:34:19;6.11;92.16
63051;SHT30;49136;47.416;19.402;2023-04-08T10:36:46;6.58;91.97
63051;SHT30;49136;47.416;19.402;2023-04-08T10:39:12;5.91;92.83
63051;SHT30;49136;47.416;19.402;2023-04-08T10:41:42;6.06;92.77
63051;SHT30;49136;47.416;19.402;2023-04-08T10:44:22;5.84;94.18
63051;SHT30;49136;47.416;19.402;2023-04-08T10:46:49;6.21;92.68
63051;SHT30;49136;47.416;19.402;2023-04-08T10:49:15;6.15;91.73
63051;SHT30;49136;47.416;19.402;2023-04-08T10:51:45;6.70;90.89
63051;SHT30;49136;47.416;19.402;2023-04-08T10:54:11;6.91;89.79
63051;SHT30;49136;47.416;19.402;2023-04-08T10:56:50;7.02;87.25
63051;SHT30;49136;47.416;19.402;2023-04-08T10:59:29;6.43;89.79
63051;SHT30;49136;47.416;19.402;2023-04-08T11:01:54;6.44;89.86
63051;SHT30;49136;47.416;19.402;2023-04-08T11:04:20;6.85;89.48
63051;SHT30;49136;47.416;19.402;2023-04-08T11:06:48;6.80;88.86
63051;SHT30;49136;47.416;19.402;2023-04-08T11:09:14;6.89;89.77
63051;SHT30;49136;47.416;19.402;2023-04-08T11:11:42;6.91;89.79
63051;SHT30;49136;47.416;19.402;2023-04-08T11:14:07;6.67;88.47
63051;SHT30;49136;47.416;19.402;2023-04-08T11:16:33;6.49;89.24
63051;SHT30;49136;47.416;19.402;2023-04-08T11:19:02;6.73;92.01
63051;SHT30;49136;47.416;19.402;2023-04-08T11:21:30;7.09;90.93
63051;SHT30;49136;47.416;19.402;2023-04-08T11:23:56;7.09;89.30
63051;SHT30;49136;47.416;19.402;2023-04-08T11:26:24;6.74;88.92
63051;SHT30;49136;47.416;19.402;2023-04-08T11:28:51;6.75;90.82
63051;SHT30;49136;47.416;19.402;2023-04-08T11:31:20;6.82;90.84
63051;SHT30;49136;47.416;19.402;2023-04-08T11:33:47;6.63;88.98
63051;SHT30;49136;47.416;19.402;2023-04-08T11:36:14;6.16;91.59
63051;SHT30;49136;47.416;19.402;2023-04-08T11:38:39;5.81;94.39
63051;SHT30;49136;47.416;19.402;2023-04-08T11:41:08;5.81;92.58
63051;SHT30;49136;47.416;19.402;2023-04-08T11:43:34;5.74;92.41
63051;SHT30;49136;47.416;19.402;2023-04-08T11:46:09;5.64;94.23
63051;SHT30;49136;47.416;19.402;2023-04-08T11:48:35;5.77;94.21
63051;SHT30;49136;47.416;19.402;2023-04-08T11:51:04;5.84;93.24
63051;SHT30;49136;47.416;19.402;2023-04-08T11:53:29;6.15;93.30
63051;SHT30;49136;47.416;19.402;2023-04-08T11:55:56;6.36;92.03
63051;SHT30;49136;47.416;19.402;2023-04-08T11:58:21;6.77;91.51
63051;SHT30;49136;47.416;19.402;2023-04-08T12:00:47;6.32;90.27
63051;SHT30;49136;47.416;19.402;2023-04-08T12:03:13;6.95;89.90
63051;SHT30;49136;47.416;19.402;2023-04-08T12:05:38;6.61;89.69
63051;SHT30;49136;47.416;19.402;2023-04-08T12:08:04;6.93;90.42
63051;SHT30;49136;47.416;19.402;2023-04-08T12:10:29;6.92;88.69
63051;SHT30;49136;47.416;19.402;2023-04-08T12:12:55;7.23;88.71
63051;SHT30;49136;47.416;19.402;2023-04-08T12:15:20;7.69;90.07
63051;SHT30;49136;47.416;19.402;2023-04-08T12:17:46;7.68;87.98
63051;SHT30;49136;47.416;19.402;2023-04-08T12:20:12;7.65;88.69
63051;SHT30;49136;47.416;19.402;2023-04-08T12:22:38;7.47;87.12
63051;SHT30;49136;47.416;19.402;2023-04-08T12:25:04;6.58;89.42
63051;SHT30;49136;47.416;19.402;2023-04-08T12:27:30;7.24;90.96
63051;SHT30;49136;47.416;19.402;2023-04-08T12:30:00;6.99;89.11
63051;SHT30;49136;47.416;19.402;2023-04-08T12:32:25;7.35;89.63
63051;SHT30;49136;47.416;19.402;2023-04-08T12:34:51;7.09;86.35
63051;SHT30;49136;47.416;19.402;2023-04-08T12:37:17;7.15;87.82
63051;SHT30;49136;47.416;19.402;2023-04-08T12:39:42;7.13;88.67
63051;SHT30;49136;47.416;19.402;2023-04-08T12:42:08;7.54;87.04
63051;SHT30;49136;47.416;19.402;2023-04-08T12:44:33;7.43;87.70
63051;SHT30;49136;47.416;19.402;2023-04-08T12:46:59;7.41;87.79
63051;SHT30;49136;47.416;19.402;2023-04-08T12:49:25;7.76;86.74
63051;SHT30;49136;47.416;19.402;2023-04-08T12:51:51;7.72;86.89
63051;SHT30;49136;47.416;19.402;2023-04-08T12:54:16;7.44;87.13
63051;SHT30;49136;47.416;19.402;2023-04-08T12:56:42;7.13;87.36
63051;SHT30;49136;47.416;19.402;2023-04-08T12:59:08;7.12;86.06
63051;SHT30;49136;47.416;19.402;2023-04-08T13:01:34;6.74;89.18
63051;SHT30;49136;47.416;19.402;2023-04-08T13:04:01;6.73;89.90
63051;SHT30;49136;47.416;19.402;2023-04-08T13:06:26;6.65;88.11
63051;SHT30;49136;47.416;19.402;2023-04-08T13:08:52;6.70;91.06
63051;SHT30;49136;47.416;19.402;2023-04-08T13:11:18;6.40;91.25
63051;SHT30;49136;47.416;19.402;2023-04-08T13:13:44;6.32;92.55
63051;SHT30;49136;47.416;19.402;2023-04-08T13:16:13;6.43;91.10
63051;SHT30;49136;47.416;19.402;2023-04-08T13:18:39;6.40;91.51
63051;SHT30;49136;47.416;19.402;2023-04-08T13:21:06;6.18;90.60
63051;SHT30;49136;47.416;19.402;2023-04-08T13:23:31;6.41;91.91
63051;SHT30;49136;47.416;19.402;2023-04-08T13:25:57;6.34;89.29
63051;SHT30;49136;47.416;19.402;2023-04-08T13:28:22;6.41;89.02
63051;SHT30;49136;47.416;19.402;2023-04-08T13:30:47;6.85;87.94
63051;SHT30;49136;47.416;19.402;2023-04-08T13:33:13;6.89;88.47
63051;SHT30;49136;47.416;19.402;2023-04-08T13:35:38;7.15;88.03
63051;SHT30;49136;47.416;19.402;2023-04-08T13:38:04;7.31;87.89
63051;SHT30;49136;47.416;19.402;2023-04-08T13:40:29;7.44;85.77
63051;SHT30;49136;47.416;19.402;2023-04-08T13:42:55;7.22;87.39
63051;SHT30;49136;47.416;19.402;2023-04-08T13:45:21;7.06;88.34
63051;SHT30;49136;47.416;19.402;2023-04-08T13:47:47;6.81;87.78
63051;SHT30;49136;47.416;19.402;2023-04-08T13:50:12;6.85;87.94
63051;SHT30;49136;47.416;19.402;2023-04-08T13:52:38;6.73;89.44
63051;SHT30;49136;47.416;19.402;2023-04-08T13:55:04;7.12;88.70
63051;SHT30;49136;47.416;19.402;2023-04-08T13:57:30;7.28;87.33
63051;SHT30;49136;47.416;19.402;2023-04-08T13:59:55;7.13;88.13
63051;SHT30;49136;47.416;19.402;2023-04-08T14:02:21;7.28;88.25
63051;SHT30;49136;47.416;19.402;2023-04-08T14:04:47;6.96;86.34
63051;SHT30;49136;47.416;19.402;2023-04-08T14:07:13;6.96;87.20
63051;SHT30;49136;47.416;19.402;2023-04-08T14:09:38;7.16;88.05
63051;SHT30;49136;47.416;19.402;2023-04-08T14:12:04;7.37;87.40
63051;SHT30;49136;47.416;19.402;2023-04-08T14:14:30;7.23;86.52
63051;SHT30;49136;47.416;19.402;2023-04-08T14:16:56;7.76;87.41
63051;SHT30;49136;47.416;19.402;2023-04-08T14:19:21;7.03;86.18
63051;SHT30;49136;47.416;19.402;2023-04-08T14:21:47;7.31;87.59
63051;SHT30;49136;47.416;19.402;2023-04-08T14:24:12;7.37;87.53
63051;SHT30;49136;47.416;19.402;2023-04-08T14:26:37;7.08;86.42
63051;SHT30;49136;47.416;19.402;2023-04-08T14:29:04;7.12;85.70
63051;SHT30;49136;47.416;19.402;2023-04-08T14:31:31;7.08;87.96
63051;SHT30;49136;47.416;19.402;2023-04-08T14:33:58;7.27;86.95
63051;SHT30;49136;47.416;19.402;2023-04-08T14:36:23;7.35;86.30
63051;SHT30;49136;47.416;19.402;2023-04-08T14:38:50;7.34;85.26
63051;SHT30;49136;47.416;19.402;2023-04-08T14:41:16;7.41;84.64
63051;SHT30;49136;47.416;19.402;2023-04-08T14:43:41;7.30;85.56
63051;SHT30;49136;47.416;19.402;2023-04-08T14:46:06;7.38;83.98
63051;SHT30;49136;47.416;19.402;2023-04-08T14:48:32;7.38;85.30
63051;SHT30;49136;47.416;19.402;2023-04-08T14:50:57;6.87;86.82
63051;SHT30;49136;47.416;19.402;2023-04-08T14:53:24;6.88;87.11
63051;SHT30;49136;47.416;19.402;2023-04-08T14:55:50;6.93;87.79
63051;SHT30;49136;47.416;19.402;2023-04-08T14:58:15;6.88;87.77
63051;SHT30;49136;47.416;19.402;2023-04-08T15:00:41;6.74;88.17
63051;SHT30;49136;47.416;19.402;2023-04-08T15:03:13;6.64;88.05
63051;SHT30;49136;47.416;19.402;2023-04-08T15:05:39;6.92;88.56
63051;SHT30;49136;47.416;19.402;2023-04-08T15:08:04;6.82;89.13
63051;SHT30;49136;47.416;19.402;2023-04-08T15:10:30;6.63;89.54
63051;SHT30;49136;47.416;19.402;2023-04-08T15:12:56;6.29;91.39
63051;SHT30;49136;47.416;19.402;2023-04-08T15:15:21;6.39;91.33
63051;SHT30;49136;47.416;19.402;2023-04-08T15:17:46;6.34;91.49
63051;SHT30;49136;47.416;19.402;2023-04-08T15:20:12;6.43;90.44
63051;SHT30;49136;47.416;19.402;2023-04-08T15:22:38;6.19;90.86
63051;SHT30;49136;47.416;19.402;2023-04-08T15:25:04;6.26;92.72
63051;SHT30;49136;47.416;19.402;2023-04-08T15:27:30;6.02;92.31
63051;SHT30;49136;47.416;19.402;2023-04-08T15:29:56;6.01;93.22
63051;SHT30;49136;47.416;19.402;2023-04-08T15:32:21;6.04;93.05
63051;SHT30;49136;47.416;19.402;2023-04-08T15:34:47;5.94;92.79
63051;SHT30;49136;47.416;19.402;2023-04-08T15:37:12;5.94;93.33